Terminal Aerodrome Forecast
Issued by NWS Wilmington, OH

Current Version | Previous Version | Text Only | Print | Product List | Glossary Off
Versions: 1 2 3 4 5 6 7 8 9 10 11 12 13 14 15 16 17 18 19 20 21 22

892
FTUS41 KILN 292244 AAB
TAFDAY
TAF AMD
KDAY 292244Z 2923/3018 08007KT 1 1/2SM -TSRA SCT020 BKN035CB BKN150
     FM300000 00000KT P6SM FEW040 SCT150
     FM300800 00000KT 3SM BR SCT002
      TEMPO 3009/3012 2SM BR BKN002
     FM301300 24006KT P6SM SCT002 BKN050=

USA.gov is the U.S. government's official web portal to all federal, state and local government web resources and services.